createdAt,value
2019-03-15T00:01:51.086Z,6.20
2019-03-15T00:04:20.310Z,6.20
2019-03-15T00:06:50.317Z,6.30
2019-03-15T00:09:19.702Z,6.30
2019-03-15T00:11:48.956Z,6.40
2019-03-15T00:14:18.198Z,6.40
2019-03-15T00:16:47.452Z,6.30
2019-03-15T00:19:16.606Z,6.30
2019-03-15T00:21:45.823Z,6.40
2019-03-15T00:24:15.265Z,6.40
2019-03-15T00:26:44.645Z,6.40
2019-03-15T00:29:13.878Z,6.30
2019-03-15T00:31:43.140Z,6.30
2019-03-15T00:34:12.382Z,6.40
2019-03-15T00:36:41.695Z,6.40
2019-03-15T00:39:11.021Z,6.40
2019-03-15T00:41:40.287Z,6.40
2019-03-15T00:44:09.502Z,6.50
2019-03-15T00:46:38.796Z,6.50
2019-03-15T00:49:08.026Z,6.50
2019-03-15T00:51:37.286Z,6.60
2019-03-15T00:54:06.660Z,6.60
2019-03-15T00:56:36.016Z,6.60
2019-03-15T00:59:05.374Z,6.60
2019-03-15T01:01:34.629Z,6.60
2019-03-15T01:04:03.943Z,6.60
2019-03-15T01:06:33.086Z,6.60
2019-03-15T01:09:02.350Z,6.60
2019-03-15T01:11:31.578Z,6.60
2019-03-15T01:14:00.764Z,6.60
2019-03-15T01:16:29.992Z,6.60
2019-03-15T01:18:59.255Z,6.50
2019-03-15T01:21:28.482Z,6.50
2019-03-15T01:23:57.751Z,6.40
2019-03-15T01:26:26.966Z,6.40
2019-03-15T01:28:56.231Z,6.30
2019-03-15T01:31:25.468Z,6.30
2019-03-15T01:33:54.806Z,6.20
2019-03-15T01:36:24.045Z,6.20
2019-03-15T01:38:53.298Z,6.20
2019-03-15T01:41:22.543Z,6.20
2019-03-15T01:43:51.811Z,6.20
2019-03-15T01:46:21.067Z,6.30
2019-03-15T01:48:50.322Z,6.30
2019-03-15T01:51:19.554Z,6.40
2019-03-15T01:53:48.815Z,6.40
2019-03-15T01:56:18.046Z,6.50
2019-03-15T01:58:47.312Z,6.50
2019-03-15T02:01:16.610Z,6.50
2019-03-15T02:03:45.862Z,6.50
2019-03-15T02:06:15.122Z,6.50
2019-03-15T02:08:44.411Z,6.50
2019-03-15T02:11:13.647Z,6.50
2019-03-15T02:13:42.913Z,6.50
2019-03-15T02:16:12.150Z,6.40
2019-03-15T02:18:41.380Z,6.40
2019-03-15T02:21:10.670Z,6.40
2019-03-15T02:23:39.900Z,6.40
2019-03-15T02:26:09.196Z,6.40
2019-03-15T02:28:38.429Z,6.50
2019-03-15T02:31:07.700Z,6.50
2019-03-15T02:33:37.011Z,6.50
2019-03-15T02:36:06.346Z,6.50
2019-03-15T02:38:35.669Z,6.50
2019-03-15T02:41:05.399Z,6.60
2019-03-15T02:43:34.675Z,6.60
2019-03-15T02:46:03.954Z,6.60
2019-03-15T02:48:33.214Z,6.60
2019-03-15T02:51:02.444Z,6.60
2019-03-15T02:53:31.603Z,6.60
2019-03-15T02:56:00.969Z,6.60
2019-03-15T02:58:30.274Z,6.50
2019-03-15T03:00:59.565Z,6.60
2019-03-15T03:03:28.799Z,6.60
2019-03-15T03:05:58.112Z,6.50
2019-03-15T03:08:27.456Z,6.60
2019-03-15T03:10:56.719Z,6.50
2019-03-15T03:13:25.964Z,6.60
2019-03-15T03:15:55.228Z,6.60
2019-03-15T03:18:24.467Z,6.50
2019-03-15T03:20:53.718Z,6.60
2019-03-15T03:23:22.945Z,6.50
2019-03-15T03:25:52.201Z,6.50
2019-03-15T03:28:21.437Z,6.50
2019-03-15T03:30:50.871Z,6.50
2019-03-15T03:33:20.180Z,6.50
2019-03-15T03:35:49.483Z,6.50
2019-03-15T03:38:18.837Z,6.50
2019-03-15T03:40:48.136Z,6.50
2019-03-15T03:43:17.332Z,6.50
2019-03-15T03:45:46.834Z,6.50
2019-03-15T03:48:16.203Z,6.50
2019-03-15T03:50:45.498Z,6.50
2019-03-15T03:53:14.760Z,6.40
2019-03-15T03:55:43.992Z,6.40
2019-03-15T03:58:13.291Z,6.50
2019-03-15T04:00:42.523Z,6.50
2019-03-15T04:03:11.811Z,6.50
2019-03-15T04:05:41.041Z,6.50
2019-03-15T04:08:10.293Z,6.50
2019-03-15T04:10:39.530Z,6.50
2019-03-15T04:13:08.789Z,6.60
2019-03-15T04:15:38.017Z,6.60
2019-03-15T04:18:07.273Z,6.50
2019-03-15T04:20:36.518Z,6.50
2019-03-15T04:23:05.876Z,6.60
2019-03-15T04:25:35.148Z,6.60
2019-03-15T04:28:04.406Z,6.60
2019-03-15T04:30:33.642Z,6.60
2019-03-15T04:33:02.911Z,6.60
2019-03-15T04:35:32.146Z,6.50
2019-03-15T04:38:01.401Z,6.50
2019-03-15T04:40:30.642Z,6.50
2019-03-15T04:42:59.905Z,6.60
2019-03-15T04:45:29.157Z,6.60
2019-03-15T04:47:58.423Z,6.50
2019-03-15T04:50:27.734Z,6.50
2019-03-15T04:52:57.085Z,6.60
2019-03-15T04:55:26.327Z,6.60
2019-03-15T04:57:55.623Z,6.50
2019-03-15T05:00:24.959Z,6.50
2019-03-15T05:02:54.278Z,6.60
2019-03-15T05:05:23.558Z,6.50
2019-03-15T05:07:52.861Z,6.50
2019-03-15T05:10:22.167Z,6.50
2019-03-15T05:12:51.414Z,6.50
2019-03-15T05:15:20.729Z,6.50
2019-03-15T05:17:49.964Z,6.60
2019-03-15T05:20:21.137Z,6.60
2019-03-15T05:22:50.326Z,6.60
2019-03-15T05:25:19.585Z,6.60
2019-03-15T05:27:48.919Z,6.60
2019-03-15T05:30:18.254Z,6.60
2019-03-15T05:32:47.487Z,6.60
2019-03-15T05:35:16.819Z,6.60
2019-03-15T05:37:46.250Z,6.60
2019-03-15T05:40:15.513Z,6.60
2019-03-15T05:42:44.818Z,6.60
2019-03-15T05:45:14.116Z,6.60
2019-03-15T05:47:43.418Z,6.60
2019-03-15T05:50:12.801Z,6.60
2019-03-15T05:52:42.036Z,6.70
2019-03-15T05:55:11.899Z,6.70
2019-03-15T05:57:41.123Z,6.70
2019-03-15T06:00:11.927Z,6.70
2019-03-15T06:02:41.159Z,6.70
2019-03-15T06:05:10.914Z,6.70
2019-03-15T06:07:40.150Z,6.70
2019-03-15T06:10:09.956Z,6.80
2019-03-15T06:12:39.195Z,6.80
2019-03-15T06:15:09.070Z,6.80
2019-03-15T06:17:38.222Z,6.80
2019-03-15T06:20:08.045Z,6.70
2019-03-15T06:22:37.303Z,6.80
2019-03-15T06:25:07.051Z,6.80
2019-03-15T06:27:36.315Z,6.70
2019-03-15T06:30:06.076Z,6.70
2019-03-15T06:32:35.335Z,6.80
2019-03-15T06:35:04.667Z,6.70
2019-03-15T06:37:33.931Z,6.70
2019-03-15T06:40:03.178Z,6.80
2019-03-15T06:42:32.437Z,6.80
2019-03-15T06:45:01.704Z,6.80
2019-03-15T06:47:31.039Z,6.80
2019-03-15T06:50:00.333Z,6.80
2019-03-15T06:52:29.710Z,6.80
2019-03-15T06:54:59.963Z,6.80
2019-03-15T06:57:29.421Z,6.80
2019-03-15T06:59:59.667Z,6.80
2019-03-15T07:02:29.086Z,6.80
2019-03-15T07:04:58.315Z,6.80
2019-03-15T07:07:29.039Z,6.70
2019-03-15T07:09:58.288Z,6.70
2019-03-15T07:12:27.549Z,6.70
2019-03-15T07:14:56.792Z,6.70
2019-03-15T07:17:26.043Z,6.70
2019-03-15T07:19:55.287Z,6.70
2019-03-15T07:22:24.566Z,6.70
2019-03-15T07:24:53.879Z,6.70
2019-03-15T07:27:23.216Z,6.70
2019-03-15T07:29:52.447Z,6.70
2019-03-15T07:32:21.693Z,6.70
2019-03-15T07:34:50.921Z,6.70
2019-03-15T07:37:20.177Z,6.80
2019-03-15T07:39:49.415Z,6.80
2019-03-15T07:42:18.749Z,6.80
2019-03-15T07:44:49.156Z,6.80
2019-03-15T07:47:18.647Z,6.80
2019-03-15T07:49:47.879Z,6.80
2019-03-15T07:52:17.133Z,6.80
2019-03-15T07:54:46.410Z,6.80
2019-03-15T07:57:15.672Z,6.80
2019-03-15T07:59:44.912Z,6.90
2019-03-15T08:02:14.130Z,6.90
2019-03-15T08:04:43.403Z,6.90
2019-03-15T08:07:12.626Z,6.80
2019-03-15T08:09:41.883Z,6.80
2019-03-15T08:12:11.150Z,6.90
2019-03-15T08:14:40.414Z,6.90
2019-03-15T08:17:09.647Z,7.00
2019-03-15T08:19:38.915Z,7.00
2019-03-15T08:22:08.223Z,7.00
2019-03-15T08:24:50.543Z,7.00
2019-03-15T08:27:08.384Z,7.10
2019-03-15T08:29:37.639Z,7.10
2019-03-15T08:32:06.880Z,7.10
2019-03-15T08:34:36.132Z,7.10
2019-03-15T08:37:05.365Z,7.20
2019-03-15T08:39:34.619Z,7.20
2019-03-15T08:42:03.879Z,7.20
2019-03-15T08:44:33.218Z,7.20
2019-03-15T08:47:02.589Z,7.20
2019-03-15T08:49:31.951Z,7.20
2019-03-15T08:52:04.081Z,7.20
2019-03-15T08:54:32.108Z,7.30
2019-03-15T08:57:01.346Z,7.30
2019-03-15T08:59:30.608Z,7.30
2019-03-15T09:01:59.831Z,7.30
2019-03-15T09:04:29.133Z,7.30
2019-03-15T09:06:58.402Z,7.30
2019-03-15T09:09:27.621Z,7.30
2019-03-15T09:11:56.878Z,7.40
2019-03-15T09:14:26.107Z,7.30
2019-03-15T09:16:55.372Z,7.30
2019-03-15T09:19:24.639Z,7.30
2019-03-15T09:21:53.898Z,7.40
2019-03-15T09:24:23.129Z,7.40
2019-03-15T09:26:52.399Z,7.40
2019-03-15T09:29:21.798Z,7.50
2019-03-15T09:32:04.393Z,7.50
2019-03-15T09:34:22.075Z,7.50
2019-03-15T09:36:51.340Z,7.50
2019-03-15T09:39:20.571Z,7.50
2019-03-15T09:41:49.844Z,7.50
2019-03-15T09:44:19.199Z,7.60
2019-03-15T09:46:48.479Z,7.60
2019-03-15T09:49:17.709Z,7.60
2019-03-15T09:51:46.888Z,7.70
2019-03-15T09:54:16.212Z,7.80
2019-03-15T09:56:45.467Z,7.80
2019-03-15T09:59:14.707Z,7.80
2019-03-15T10:01:43.958Z,7.80
2019-03-15T10:04:13.229Z,7.80
2019-03-15T10:06:42.563Z,7.90
2019-03-15T10:09:11.841Z,7.90
2019-03-15T10:11:41.178Z,7.90
2019-03-15T10:14:10.402Z,7.90
2019-03-15T10:16:39.668Z,7.90
2019-03-15T10:19:08.892Z,8.00
2019-03-15T10:21:38.191Z,8.00
2019-03-15T10:24:07.406Z,8.10
2019-03-15T10:26:36.630Z,8.10
2019-03-15T10:29:15.248Z,8.20
2019-03-15T10:31:36.879Z,8.30
2019-03-15T10:34:06.202Z,8.30
2019-03-15T10:36:35.431Z,8.40
2019-03-15T10:39:05.552Z,8.30
2019-03-15T10:41:37.965Z,8.40
2019-03-15T10:44:05.781Z,8.50
2019-03-15T10:46:35.046Z,8.60
2019-03-15T10:49:04.308Z,8.70
2019-03-15T10:51:33.545Z,8.70
2019-03-15T10:54:02.802Z,8.80
2019-03-15T10:56:32.032Z,8.70
2019-03-15T10:59:01.239Z,8.80
2019-03-15T11:01:30.469Z,8.80
2019-03-15T11:03:59.735Z,8.80
2019-03-15T11:06:28.965Z,8.70
2019-03-15T11:08:58.205Z,8.70
2019-03-15T11:11:27.425Z,8.80
2019-03-15T11:13:56.691Z,8.80
2019-03-15T11:16:26.224Z,8.90
2019-03-15T11:18:55.550Z,8.90
2019-03-15T11:21:24.779Z,8.90
2019-03-15T11:23:54.124Z,9.00
2019-03-15T11:26:23.436Z,9.00
2019-03-15T11:28:52.656Z,9.00
2019-03-15T11:31:21.910Z,9.00
2019-03-15T11:33:51.139Z,9.10
2019-03-15T11:36:20.386Z,9.10
2019-03-15T11:38:49.618Z,9.20
2019-03-15T11:41:18.876Z,9.20
2019-03-15T11:43:48.130Z,9.20
2019-03-15T11:46:17.522Z,9.30
2019-03-15T11:48:46.834Z,9.40
2019-03-15T11:51:16.099Z,9.50
2019-03-15T11:53:45.326Z,9.60
2019-03-15T11:56:26.460Z,9.60
2019-03-15T11:58:45.530Z,9.60
2019-03-15T12:01:14.787Z,9.70
2019-03-15T12:03:52.965Z,9.80
2019-03-15T12:06:14.982Z,9.90
2019-03-15T12:08:44.216Z,10.00
2019-03-15T12:11:13.551Z,10.00
2019-03-15T12:13:42.859Z,10.10
2019-03-15T12:16:12.123Z,10.20
2019-03-15T12:18:42.360Z,10.20
2019-03-15T12:21:11.546Z,10.30
2019-03-15T12:23:40.784Z,10.40
2019-03-15T12:26:10.273Z,10.50
2019-03-15T12:28:39.551Z,10.60
2019-03-15T12:31:08.815Z,10.80
2019-03-15T12:33:38.034Z,10.90
2019-03-15T12:36:07.304Z,10.90
2019-03-15T12:38:36.531Z,11.00
2019-03-15T12:41:05.935Z,11.10
2019-03-15T12:43:35.181Z,11.20
2019-03-15T12:46:04.588Z,11.10
2019-03-15T12:48:33.875Z,11.20
2019-03-15T12:51:03.135Z,11.20
2019-03-15T12:53:32.389Z,11.20
2019-03-15T12:56:01.643Z,11.30
2019-03-15T12:58:30.911Z,11.30
2019-03-15T13:01:00.184Z,11.30
2019-03-15T13:03:29.449Z,11.30
2019-03-15T13:05:58.679Z,11.30
2019-03-15T13:08:27.944Z,11.20
2019-03-15T13:10:57.170Z,11.20
2019-03-15T13:13:26.422Z,11.20
2019-03-15T13:15:55.659Z,11.10
2019-03-15T13:18:24.851Z,11.10
2019-03-15T13:20:54.165Z,11.10
2019-03-15T13:23:23.503Z,11.10
2019-03-15T13:25:54.597Z,11.20
2019-03-15T13:28:23.679Z,11.20
2019-03-15T13:30:52.964Z,11.30
2019-03-15T13:33:22.304Z,11.40
2019-03-15T13:35:51.623Z,11.40
2019-03-15T13:38:20.914Z,11.50
2019-03-15T13:40:50.250Z,11.70
2019-03-15T13:43:19.547Z,11.70
2019-03-15T13:45:48.843Z,11.80
2019-03-15T13:48:18.098Z,12.00
2019-03-15T13:50:47.330Z,12.30
2019-03-15T13:53:16.606Z,12.40
2019-03-15T13:55:45.847Z,12.40
2019-03-15T13:58:16.047Z,12.50
2019-03-15T14:00:45.358Z,12.40
2019-03-15T14:03:14.617Z,12.30
2019-03-15T14:05:43.858Z,12.20
2019-03-15T14:08:13.114Z,12.20
2019-03-15T14:10:49.373Z,12.20
2019-03-15T14:13:13.374Z,12.20
2019-03-15T14:15:42.606Z,12.20
2019-03-15T14:18:11.895Z,12.20
2019-03-15T14:20:41.222Z,12.20
2019-03-15T14:23:10.458Z,12.10
2019-03-15T14:25:39.685Z,12.10
2019-03-15T14:28:08.973Z,12.10
2019-03-15T14:30:38.715Z,12.10
2019-03-15T14:33:07.957Z,12.10
2019-03-15T14:35:37.164Z,12.10
2019-03-15T14:38:06.631Z,12.10
2019-03-15T14:40:36.107Z,12.20
2019-03-15T14:43:05.737Z,12.30
2019-03-15T14:45:35.067Z,12.40
2019-03-15T14:48:04.325Z,12.40
2019-03-15T14:50:33.591Z,12.50
2019-03-15T14:53:02.825Z,12.50
2019-03-15T14:55:32.126Z,12.50
2019-03-15T14:58:01.361Z,12.50
2019-03-15T15:00:30.618Z,12.60
2019-03-15T15:02:59.856Z,12.60
2019-03-15T15:05:29.115Z,12.60
2019-03-15T15:07:58.351Z,12.50
2019-03-15T15:10:27.609Z,12.40
2019-03-15T15:12:56.921Z,12.40
2019-03-15T15:15:26.274Z,12.30
2019-03-15T15:17:55.506Z,12.30
2019-03-15T15:20:24.767Z,12.20
2019-03-15T15:22:54.016Z,12.10
2019-03-15T15:25:23.275Z,12.10
2019-03-15T15:28:03.902Z,12.00
2019-03-15T15:30:23.533Z,12.00
2019-03-15T15:32:52.770Z,11.90
2019-03-15T15:35:22.155Z,11.90
2019-03-15T15:37:51.392Z,11.90
2019-03-15T15:40:20.678Z,11.80
2019-03-15T15:42:50.034Z,11.80
2019-03-15T15:45:19.319Z,11.80
2019-03-15T15:47:48.580Z,11.80
2019-03-15T15:50:17.868Z,11.90
2019-03-15T15:52:47.173Z,11.80
2019-03-15T15:55:16.506Z,11.80
2019-03-15T15:57:45.734Z,11.80
2019-03-15T16:00:15.120Z,11.80
2019-03-15T16:02:44.356Z,11.80
2019-03-15T16:05:13.641Z,11.90
2019-03-15T16:07:42.882Z,11.80
2019-03-15T16:10:12.403Z,11.80
2019-03-15T16:12:41.645Z,11.80
2019-03-15T16:15:11.500Z,11.80
2019-03-15T16:17:40.941Z,11.80
2019-03-15T16:20:10.232Z,11.80
2019-03-15T16:22:39.729Z,11.80
2019-03-15T16:25:09.120Z,11.80
2019-03-15T16:27:38.401Z,11.80
2019-03-15T16:30:09.795Z,11.80
2019-03-15T16:32:39.047Z,11.80
2019-03-15T16:35:10.274Z,11.80
2019-03-15T16:37:39.585Z,11.70
2019-03-15T16:40:09.264Z,11.70
2019-03-15T16:42:38.617Z,11.70
2019-03-15T16:45:10.403Z,11.70
2019-03-15T16:47:39.718Z,11.60
2019-03-15T16:50:10.321Z,11.60
2019-03-15T16:52:39.615Z,11.60
2019-03-15T16:55:09.884Z,11.50
2019-03-15T16:57:39.185Z,11.50
2019-03-15T17:00:09.675Z,11.50
2019-03-15T17:02:39.013Z,11.40
2019-03-15T17:05:08.394Z,11.40
2019-03-15T17:07:37.658Z,11.40
2019-03-15T17:10:07.386Z,11.40
2019-03-15T17:12:36.616Z,11.30
2019-03-15T17:15:06.490Z,11.30
2019-03-15T17:17:35.759Z,11.20
2019-03-15T17:20:05.359Z,11.20
2019-03-15T17:22:34.751Z,11.30
2019-03-15T17:25:04.255Z,11.30
2019-03-15T17:27:33.507Z,11.20
2019-03-15T17:30:02.768Z,11.20
2019-03-15T17:32:32.044Z,11.20
2019-03-15T17:35:01.345Z,11.20
2019-03-15T17:37:30.698Z,11.20
2019-03-15T17:39:59.967Z,11.20
2019-03-15T17:42:29.300Z,11.20
2019-03-15T17:44:58.539Z,11.10
2019-03-15T17:47:27.832Z,11.10
2019-03-15T17:49:57.083Z,11.10
2019-03-15T17:52:26.350Z,11.00
2019-03-15T17:54:55.597Z,11.10
2019-03-15T17:57:24.905Z,11.00
2019-03-15T18:00:10.370Z,11.10
2019-03-15T18:02:39.634Z,11.10
2019-03-15T18:05:09.521Z,11.00
2019-03-15T18:07:38.882Z,11.00
2019-03-15T18:10:08.568Z,11.00
2019-03-15T18:12:37.890Z,11.00
2019-03-15T18:15:07.165Z,11.00
2019-03-15T18:17:36.401Z,11.00
2019-03-15T18:20:06.097Z,11.00
2019-03-15T18:22:35.339Z,11.00
2019-03-15T18:25:04.937Z,11.00
2019-03-15T18:27:34.248Z,11.00
2019-03-15T18:30:03.601Z,10.90
2019-03-15T18:32:32.872Z,10.90
2019-03-15T18:35:02.139Z,11.00
2019-03-15T18:37:31.381Z,10.90
2019-03-15T18:40:00.719Z,10.90
2019-03-15T18:42:30.031Z,10.80
2019-03-15T18:44:59.303Z,10.60
2019-03-15T18:47:28.672Z,10.60
2019-03-15T18:49:58.042Z,10.50
2019-03-15T18:52:27.280Z,10.50
2019-03-15T18:54:56.547Z,10.50
2019-03-15T18:57:25.785Z,10.40
2019-03-15T18:59:55.050Z,10.40
2019-03-15T19:02:24.278Z,10.40
2019-03-15T19:04:54.219Z,10.40
2019-03-15T19:07:23.463Z,10.40
2019-03-15T19:09:52.717Z,10.30
2019-03-15T19:12:21.957Z,10.30
2019-03-15T19:14:51.223Z,10.30
2019-03-15T19:17:20.461Z,10.20
2019-03-15T19:19:49.728Z,10.20
2019-03-15T19:22:18.907Z,10.10
2019-03-15T19:24:48.190Z,10.00
2019-03-15T19:27:17.550Z,9.90
2019-03-15T19:29:53.602Z,9.80
2019-03-15T19:32:17.700Z,9.70
2019-03-15T19:34:50.558Z,9.60
2019-03-15T19:37:19.926Z,9.60
2019-03-15T19:39:49.150Z,9.60
2019-03-15T19:42:18.425Z,9.50
2019-03-15T19:44:47.695Z,9.50
2019-03-15T19:47:16.977Z,9.50
2019-03-15T19:49:46.242Z,9.40
2019-03-15T19:52:15.526Z,9.40
2019-03-15T19:54:44.752Z,9.30
2019-03-15T19:57:14.019Z,9.20
2019-03-15T19:59:43.254Z,9.20
2019-03-15T20:02:12.523Z,9.10
2019-03-15T20:04:41.858Z,9.10
2019-03-15T20:07:11.119Z,9.10
2019-03-15T20:09:40.362Z,9.00
2019-03-15T20:12:09.630Z,9.00
2019-03-15T20:14:38.867Z,9.00
2019-03-15T20:17:08.283Z,9.00
2019-03-15T20:19:37.517Z,8.90
2019-03-15T20:22:06.863Z,8.90
2019-03-15T20:24:36.708Z,8.90
2019-03-15T20:27:06.183Z,8.90
2019-03-15T20:29:35.615Z,8.90
2019-03-15T20:32:04.932Z,8.90
2019-03-15T20:34:34.311Z,8.80
2019-03-15T20:37:03.736Z,8.80
2019-03-15T20:39:32.964Z,8.80
2019-03-15T20:42:02.214Z,8.80
2019-03-15T20:44:31.518Z,8.70
2019-03-15T20:47:00.810Z,8.80
2019-03-15T20:49:30.136Z,8.80
2019-03-15T20:51:59.423Z,8.70
2019-03-15T20:54:28.679Z,8.70
2019-03-15T20:56:57.955Z,8.70
2019-03-15T20:59:27.204Z,8.70
2019-03-15T21:01:56.518Z,8.70
2019-03-15T21:04:25.790Z,8.60
2019-03-15T21:06:55.188Z,8.60
2019-03-15T21:09:24.450Z,8.60
2019-03-15T21:11:55.520Z,8.60
2019-03-15T21:14:24.971Z,8.60
2019-03-15T21:16:54.335Z,8.60
2019-03-15T21:19:23.639Z,8.50
2019-03-15T21:21:56.100Z,8.50
2019-03-15T21:24:23.852Z,8.50
2019-03-15T21:26:52.990Z,8.50
2019-03-15T21:29:22.318Z,8.40
2019-03-15T21:31:51.586Z,8.40
2019-03-15T21:34:20.856Z,8.40
2019-03-15T21:36:50.107Z,8.40
2019-03-15T21:39:19.389Z,8.40
2019-03-15T21:41:48.621Z,8.30
2019-03-15T21:44:17.871Z,8.30
2019-03-15T21:46:47.223Z,8.30
2019-03-15T21:49:16.486Z,8.20
2019-03-15T21:51:45.851Z,8.20
2019-03-15T21:54:15.139Z,8.20
2019-03-15T21:56:44.371Z,8.20
2019-03-15T21:59:13.618Z,8.20
2019-03-15T22:01:42.860Z,8.10
2019-03-15T22:04:12.168Z,8.00
2019-03-15T22:06:41.395Z,8.00
2019-03-15T22:09:10.653Z,8.00
2019-03-15T22:11:39.910Z,8.00
2019-03-15T22:14:09.242Z,7.90
2019-03-15T22:16:38.670Z,8.00
2019-03-15T22:19:07.942Z,8.00
2019-03-15T22:21:37.102Z,8.00
2019-03-15T22:24:06.368Z,8.00
2019-03-15T22:26:35.599Z,8.00
2019-03-15T22:29:05.035Z,8.00
2019-03-15T22:31:34.334Z,8.00
2019-03-15T22:34:03.640Z,7.90
2019-03-15T22:36:32.893Z,8.00
2019-03-15T22:39:02.129Z,7.90
2019-03-15T22:41:31.450Z,7.90
2019-03-15T22:44:00.681Z,7.90
2019-03-15T22:46:29.955Z,7.90
2019-03-15T22:48:59.190Z,8.00
2019-03-15T22:51:28.445Z,8.00
2019-03-15T22:53:57.683Z,8.00
2019-03-15T22:56:26.973Z,8.00
2019-03-15T22:58:56.198Z,8.00
2019-03-15T23:01:30.353Z,8.00
2019-03-15T23:03:56.440Z,8.00
2019-03-15T23:06:25.694Z,8.00
2019-03-15T23:08:54.922Z,8.00
2019-03-15T23:11:24.322Z,7.90
2019-03-15T23:13:53.658Z,7.90
2019-03-15T23:16:22.922Z,8.00
2019-03-15T23:18:52.146Z,7.90
2019-03-15T23:21:21.398Z,7.90
2019-03-15T23:23:50.628Z,7.90
2019-03-15T23:26:19.986Z,7.90
2019-03-15T23:28:49.232Z,7.90
2019-03-15T23:31:18.676Z,7.90
2019-03-15T23:33:47.973Z,7.90
2019-03-15T23:36:17.222Z,7.90
2019-03-15T23:38:46.502Z,7.90
2019-03-15T23:41:15.801Z,8.00
2019-03-15T23:43:45.039Z,7.90
2019-03-15T23:46:14.298Z,7.90
2019-03-15T23:48:43.550Z,7.90
2019-03-15T23:51:12.786Z,7.90
2019-03-15T23:53:42.062Z,7.90
2019-03-15T23:56:11.286Z,8.00
2019-03-15T23:58:40.543Z,7.90
